sensor_id;sensor_type;location;lat;lon;timestamp;P1;durP1;ratioP1;P2;durP2;ratioP2
12369;SDS011;6249;52.128;9.986;2023-06-14T00:08:06;12.53;;;2.57;;
12369;SDS011;6249;52.128;9.986;2023-06-14T00:18:08;4.40;;;2.30;;
12369;SDS011;6249;52.128;9.986;2023-06-14T00:28:11;6.40;;;2.87;;
12369;SDS011;6249;52.128;9.986;2023-06-14T00:38:12;7.40;;;2.30;;
12369;SDS011;6249;52.128;9.986;2023-06-14T00:48:13;6.43;;;1.90;;
12369;SDS011;6249;52.128;9.986;2023-06-14T00:58:16;9.73;;;2.10;;
12369;SDS011;6249;52.128;9.986;2023-06-14T01:09:01;3.93;;;1.70;;
12369;SDS011;6249;52.128;9.986;2023-06-14T01:18:52;4.20;;;1.63;;
12369;SDS011;6249;52.128;9.986;2023-06-14T01:28:56;4.73;;;1.93;;
12369;SDS011;6249;52.128;9.986;2023-06-14T01:38:58;4.17;;;1.80;;
12369;SDS011;6249;52.128;9.986;2023-06-14T01:49:04;5.13;;;1.70;;
12369;SDS011;6249;52.128;9.986;2023-06-14T01:59:05;4.20;;;1.93;;
12369;SDS011;6249;52.128;9.986;2023-06-14T02:09:06;6.13;;;1.83;;
12369;SDS011;6249;52.128;9.986;2023-06-14T02:19:08;6.00;;;2.00;;
12369;SDS011;6249;52.128;9.986;2023-06-14T02:29:11;6.17;;;2.00;;
12369;SDS011;6249;52.128;9.986;2023-06-14T02:39:15;6.70;;;2.50;;
12369;SDS011;6249;52.128;9.986;2023-06-14T02:49:21;5.63;;;2.30;;
12369;SDS011;6249;52.128;9.986;2023-06-14T02:59:22;8.33;;;1.97;;
12369;SDS011;6249;52.128;9.986;2023-06-14T03:09:25;4.60;;;2.27;;
12369;SDS011;6249;52.128;9.986;2023-06-14T03:19:25;3.47;;;1.93;;
12369;SDS011;6249;52.128;9.986;2023-06-14T03:29:26;6.43;;;2.10;;
12369;SDS011;6249;52.128;9.986;2023-06-14T03:39:27;4.53;;;2.10;;
12369;SDS011;6249;52.128;9.986;2023-06-14T03:49:27;6.15;;;2.60;;
12369;SDS011;6249;52.128;9.986;2023-06-14T03:59:28;5.33;;;2.23;;
12369;SDS011;6249;52.128;9.986;2023-06-14T04:09:29;6.50;;;2.83;;
12369;SDS011;6249;52.128;9.986;2023-06-14T04:19:33;6.93;;;3.03;;
12369;SDS011;6249;52.128;9.986;2023-06-14T04:29:36;5.00;;;2.47;;
12369;SDS011;6249;52.128;9.986;2023-06-14T04:39:39;8.47;;;3.60;;
12369;SDS011;6249;52.128;9.986;2023-06-14T04:49:39;5.33;;;2.90;;
12369;SDS011;6249;52.128;9.986;2023-06-14T04:59:43;4.97;;;2.63;;
12369;SDS011;6249;52.128;9.986;2023-06-14T05:09:44;5.30;;;2.47;;
12369;SDS011;6249;52.128;9.986;2023-06-14T05:19:45;5.13;;;1.90;;
12369;SDS011;6249;52.128;9.986;2023-06-14T05:29:48;9.00;;;2.57;;
12369;SDS011;6249;52.128;9.986;2023-06-14T05:39:50;5.87;;;2.57;;
12369;SDS011;6249;52.128;9.986;2023-06-14T05:49:50;5.80;;;2.10;;
12369;SDS011;6249;52.128;9.986;2023-06-14T05:59:51;11.57;;;2.60;;
12369;SDS011;6249;52.128;9.986;2023-06-14T06:09:51;4.05;;;2.40;;
12369;SDS011;6249;52.128;9.986;2023-06-14T06:19:54;7.33;;;2.63;;
12369;SDS011;6249;52.128;9.986;2023-06-14T06:29:55;8.27;;;2.40;;
12369;SDS011;6249;52.128;9.986;2023-06-14T06:39:56;5.83;;;2.43;;
12369;SDS011;6249;52.128;9.986;2023-06-14T06:49:56;5.18;;;2.60;;
12369;SDS011;6249;52.128;9.986;2023-06-14T07:00:02;6.60;;;2.37;;
12369;SDS011;6249;52.128;9.986;2023-06-14T07:10:10;8.87;;;2.80;;
12369;SDS011;6249;52.128;9.986;2023-06-14T07:20:11;5.53;;;2.30;;
12369;SDS011;6249;52.128;9.986;2023-06-14T07:30:15;5.20;;;2.30;;
12369;SDS011;6249;52.128;9.986;2023-06-14T07:40:19;6.40;;;2.60;;
12369;SDS011;6249;52.128;9.986;2023-06-14T07:50:20;6.63;;;3.33;;
12369;SDS011;6249;52.128;9.986;2023-06-14T08:00:21;6.10;;;3.35;;
12369;SDS011;6249;52.128;9.986;2023-06-14T08:10:22;5.80;;;3.00;;
12369;SDS011;6249;52.128;9.986;2023-06-14T08:20:23;7.00;;;3.03;;
12369;SDS011;6249;52.128;9.986;2023-06-14T08:30:30;6.60;;;3.57;;
12369;SDS011;6249;52.128;9.986;2023-06-14T08:40:33;8.57;;;3.50;;
12369;SDS011;6249;52.128;9.986;2023-06-14T08:50:37;9.67;;;3.43;;
12369;SDS011;6249;52.128;9.986;2023-06-14T09:00:41;9.20;;;2.63;;
12369;SDS011;6249;52.128;9.986;2023-06-14T09:10:43;3.80;;;1.90;;
12369;SDS011;6249;52.128;9.986;2023-06-14T09:20:47;6.57;;;2.50;;
12369;SDS011;6249;52.128;9.986;2023-06-14T09:30:48;5.00;;;2.20;;
12369;SDS011;6249;52.128;9.986;2023-06-14T09:40:49;4.50;;;2.22;;
12369;SDS011;6249;52.128;9.986;2023-06-14T09:50:57;4.10;;;2.13;;
12369;SDS011;6249;52.128;9.986;2023-06-14T10:01:01;4.93;;;2.00;;
12369;SDS011;6249;52.128;9.986;2023-06-14T10:11:03;6.43;;;1.90;;
12369;SDS011;6249;52.128;9.986;2023-06-14T10:21:05;3.87;;;2.03;;
12369;SDS011;6249;52.128;9.986;2023-06-14T10:31:14;9.70;;;2.50;;
12369;SDS011;6249;52.128;9.986;2023-06-14T10:41:16;4.23;;;2.20;;
12369;SDS011;6249;52.128;9.986;2023-06-14T10:51:20;6.80;;;2.03;;
12369;SDS011;6249;52.128;9.986;2023-06-14T11:01:37;4.57;;;1.93;;
12369;SDS011;6249;52.128;9.986;2023-06-14T11:11:42;4.70;;;2.23;;
12369;SDS011;6249;52.128;9.986;2023-06-14T11:21:47;6.47;;;2.57;;
12369;SDS011;6249;52.128;9.986;2023-06-14T11:31:48;6.90;;;2.40;;
12369;SDS011;6249;52.128;9.986;2023-06-14T11:41:51;6.97;;;3.07;;
12369;SDS011;6249;52.128;9.986;2023-06-14T11:51:57;6.40;;;3.07;;
12369;SDS011;6249;52.128;9.986;2023-06-14T12:01:58;7.83;;;3.30;;
12369;SDS011;6249;52.128;9.986;2023-06-14T12:12:00;6.70;;;3.10;;
12369;SDS011;6249;52.128;9.986;2023-06-14T12:22:03;6.60;;;3.10;;
12369;SDS011;6249;52.128;9.986;2023-06-14T12:32:05;4.43;;;2.43;;
12369;SDS011;6249;52.128;9.986;2023-06-14T12:42:08;4.70;;;2.50;;
12369;SDS011;6249;52.128;9.986;2023-06-14T12:52:10;8.17;;;2.97;;
12369;SDS011;6249;52.128;9.986;2023-06-14T13:02:17;5.93;;;2.80;;
12369;SDS011;6249;52.128;9.986;2023-06-14T13:12:22;7.83;;;3.27;;
12369;SDS011;6249;52.128;9.986;2023-06-14T13:22:22;8.97;;;3.30;;
12369;SDS011;6249;52.128;9.986;2023-06-14T13:32:27;8.73;;;3.70;;
12369;SDS011;6249;52.128;9.986;2023-06-14T13:42:28;7.03;;;3.70;;
12369;SDS011;6249;52.128;9.986;2023-06-14T13:52:31;14.20;;;3.13;;
12369;SDS011;6249;52.128;9.986;2023-06-14T14:02:32;5.67;;;2.90;;
12369;SDS011;6249;52.128;9.986;2023-06-14T14:12:33;12.90;;;3.70;;
12369;SDS011;6249;52.128;9.986;2023-06-14T14:22:38;7.67;;;3.10;;
12369;SDS011;6249;52.128;9.986;2023-06-14T14:32:39;10.20;;;3.63;;
12369;SDS011;6249;52.128;9.986;2023-06-14T14:42:40;10.73;;;3.50;;
12369;SDS011;6249;52.128;9.986;2023-06-14T14:52:41;7.40;;;3.40;;
12369;SDS011;6249;52.128;9.986;2023-06-14T15:02:42;8.77;;;3.53;;
12369;SDS011;6249;52.128;9.986;2023-06-14T15:12:42;11.83;;;3.33;;
12369;SDS011;6249;52.128;9.986;2023-06-14T15:22:43;7.30;;;3.37;;
12369;SDS011;6249;52.128;9.986;2023-06-14T15:32:43;5.90;;;3.80;;
12369;SDS011;6249;52.128;9.986;2023-06-14T15:42:44;11.77;;;4.70;;
12369;SDS011;6249;52.128;9.986;2023-06-14T15:52:45;10.40;;;3.60;;
12369;SDS011;6249;52.128;9.986;2023-06-14T16:02:46;14.90;;;4.03;;
12369;SDS011;6249;52.128;9.986;2023-06-14T16:12:47;10.77;;;3.93;;
12369;SDS011;6249;52.128;9.986;2023-06-14T16:22:47;7.30;;;3.07;;
12369;SDS011;6249;52.128;9.986;2023-06-14T16:32:50;6.70;;;3.07;;
12369;SDS011;6249;52.128;9.986;2023-06-14T16:42:51;7.20;;;3.13;;
12369;SDS011;6249;52.128;9.986;2023-06-14T16:52:51;6.30;;;3.33;;
12369;SDS011;6249;52.128;9.986;2023-06-14T17:02:55;8.10;;;3.33;;
12369;SDS011;6249;52.128;9.986;2023-06-14T17:12:56;6.47;;;3.27;;
12369;SDS011;6249;52.128;9.986;2023-06-14T17:22:57;7.10;;;3.33;;
12369;SDS011;6249;52.128;9.986;2023-06-14T17:32:57;9.47;;;3.70;;
12369;SDS011;6249;52.128;9.986;2023-06-14T17:42:58;12.93;;;4.10;;
12369;SDS011;6249;52.128;9.986;2023-06-14T17:52:58;8.57;;;3.73;;
12369;SDS011;6249;52.128;9.986;2023-06-14T18:03:03;7.63;;;3.33;;
12369;SDS011;6249;52.128;9.986;2023-06-14T18:13:04;12.37;;;3.60;;
12369;SDS011;6249;52.128;9.986;2023-06-14T18:23:09;12.57;;;3.60;;
12369;SDS011;6249;52.128;9.986;2023-06-14T18:33:12;9.53;;;3.23;;
12369;SDS011;6249;52.128;9.986;2023-06-14T18:43:15;7.73;;;3.20;;
12369;SDS011;6249;52.128;9.986;2023-06-14T18:53:16;9.90;;;4.00;;
12369;SDS011;6249;52.128;9.986;2023-06-14T19:03:16;8.73;;;4.20;;
12369;SDS011;6249;52.128;9.986;2023-06-14T19:13:17;6.90;;;3.33;;
12369;SDS011;6249;52.128;9.986;2023-06-14T19:23:18;7.50;;;3.17;;
12369;SDS011;6249;52.128;9.986;2023-06-14T19:33:22;13.50;;;3.60;;
12369;SDS011;6249;52.128;9.986;2023-06-14T19:43:22;13.57;;;3.90;;
12369;SDS011;6249;52.128;9.986;2023-06-14T19:53:23;13.97;;;4.07;;
12369;SDS011;6249;52.128;9.986;2023-06-14T20:03:23;8.68;;;3.75;;
12369;SDS011;6249;52.128;9.986;2023-06-14T20:13:26;7.30;;;4.23;;
12369;SDS011;6249;52.128;9.986;2023-06-14T20:23:27;6.80;;;3.83;;
12369;SDS011;6249;52.128;9.986;2023-06-14T20:33:30;9.20;;;4.10;;
12369;SDS011;6249;52.128;9.986;2023-06-14T20:43:31;12.40;;;3.70;;
12369;SDS011;6249;52.128;9.986;2023-06-14T20:53:35;8.90;;;4.10;;
12369;SDS011;6249;52.128;9.986;2023-06-14T21:03:37;12.50;;;3.90;;
12369;SDS011;6249;52.128;9.986;2023-06-14T21:13:37;8.50;;;4.17;;
12369;SDS011;6249;52.128;9.986;2023-06-14T21:23:38;7.97;;;3.90;;
12369;SDS011;6249;52.128;9.986;2023-06-14T21:33:38;9.53;;;3.93;;
12369;SDS011;6249;52.128;9.986;2023-06-14T21:43:42;7.23;;;3.83;;
12369;SDS011;6249;52.128;9.986;2023-06-14T21:53:42;10.70;;;4.50;;
12369;SDS011;6249;52.128;9.986;2023-06-14T22:03:49;9.43;;;4.40;;
12369;SDS011;6249;52.128;9.986;2023-06-14T22:13:49;8.43;;;4.40;;
12369;SDS011;6249;52.128;9.986;2023-06-14T22:23:50;9.50;;;4.40;;
12369;SDS011;6249;52.128;9.986;2023-06-14T22:33:50;9.37;;;4.43;;
12369;SDS011;6249;52.128;9.986;2023-06-14T22:43:52;10.73;;;4.10;;
12369;SDS011;6249;52.128;9.986;2023-06-14T22:53:53;9.07;;;4.90;;
12369;SDS011;6249;52.128;9.986;2023-06-14T23:03:56;6.97;;;3.37;;
12369;SDS011;6249;52.128;9.986;2023-06-14T23:13:56;7.90;;;4.43;;
12369;SDS011;6249;52.128;9.986;2023-06-14T23:23:58;9.10;;;4.53;;
12369;SDS011;6249;52.128;9.986;2023-06-14T23:34:02;10.63;;;4.83;;
12369;SDS011;6249;52.128;9.986;2023-06-14T23:44:03;12.20;;;4.60;;
12369;SDS011;6249;52.128;9.986;2023-06-14T23:54:07;9.83;;;4.43;;
